Time;durP1;ratioP1;P1;durP2;ratioP2;P2;SDS_P1;SDS_P2;PMS_P1;PMS_P2;Temp;Humidity;BMP_temperature;BMP_pressure;BME280_temperature;BME280_humidity;BME280_pressure;Samples;Min_cycle;Max_cycle;Signal;HPM_P1;HPM_P2
2022/10/08 00:00:55;;;;;;;26.83;16.48;;;;;;;9.35;100.00;97048.06;4992693;28;20042;-65
2022/10/08 00:03:23;;;;;;;25.55;15.93;;;;;;;9.35;100.00;97048.84;4980676;28;20046;-65
2022/10/08 00:06:03;;;;;;;19.60;14.02;;;;;;;9.35;100.00;97048.84;4985129;28;20115;-65
2022/10/08 00:08:30;;;;;;;;;;;;;;;9.26;100.00;97042.75;4984293;28;20053;-65
2022/10/08 00:11:02;;;;;;;20.85;14.98;;;;;;;9.27;100.00;97049.00;4986897;28;19914;-65
2022/10/08 00:13:39;;;;;;;24.95;14.70;;;;;;;9.28;100.00;97047.88;4985447;28;20042;-65
2022/10/08 00:16:25;;;;;;;22.98;15.10;;;;;;;9.41;100.00;97049.38;4983927;28;20034;-65
2022/10/08 00:18:52;;;;;;;20.30;14.75;;;;;;;9.47;100.00;97041.72;4986554;28;20137;-65
2022/10/08 00:21:22;;;;;;;21.08;15.45;;;;;;;9.46;100.00;97040.94;4979908;28;20045;-65
2022/10/08 00:23:49;;;;;;;22.15;14.57;;;;;;;9.55;100.00;97041.56;4983753;28;20046;-65
2022/10/08 00:26:16;;;;;;;22.40;13.75;;;;;;;9.68;100.00;97046.94;4979933;28;20100;-65
2022/10/08 00:28:44;;;;;;;22.92;14.38;;;;;;;9.80;100.00;97046.09;4984242;28;20498;-65
2022/10/08 00:31:16;;;;;;;20.50;13.73;;;;;;;9.90;100.00;97045.53;4979220;28;20089;-65
2022/10/08 00:33:42;;;;;;;19.35;12.88;;;;;;;9.93;100.00;97051.09;4984949;28;20042;-66
2022/10/08 00:36:11;;;;;;;24.95;13.98;;;;;;;9.96;100.00;97046.88;4978480;28;20092;-65
2022/10/08 00:38:36;;;;;;;17.37;9.87;;;;;;;9.98;100.00;97049.25;4984423;28;20053;-66
2022/10/08 00:41:04;;;;;;;23.73;13.60;;;;;;;9.99;100.00;97053.56;4985213;28;20642;-65
2022/10/08 00:43:46;;;;;;;21.10;13.65;;;;;;;10.04;100.00;97047.84;4990547;28;20038;-66
2022/10/08 00:46:30;;;;;;;17.77;13.20;;;;;;;10.07;100.00;97050.66;4991764;28;20104;-66
2022/10/08 00:49:19;;;;;;;21.63;13.15;;;;;;;10.09;100.00;97042.88;4986507;28;20050;-66
2022/10/08 00:51:51;;;;;;;21.88;15.07;;;;;;;10.11;100.00;97046.06;4985024;28;20538;-66
2022/10/08 00:54:19;;;;;;;26.23;14.60;;;;;;;10.12;100.00;97044.91;4978159;28;20211;-66
2022/10/08 00:56:48;;;;;;;22.55;14.20;;;;;;;9.91;100.00;97034.25;4983143;28;20038;-66
2022/10/08 00:59:13;;;;;;;25.57;14.37;;;;;;;9.69;100.00;97034.88;4978922;28;20050;-67
2022/10/08 01:01:42;;;;;;;24.52;15.85;;;;;;;9.44;100.00;97036.97;4983781;28;20376;-66
2022/10/08 01:04:10;;;;;;;25.73;15.52;;;;;;;9.37;100.00;97035.63;4979917;28;20407;-66
2022/10/08 01:06:56;;;;;;;26.05;16.45;;;;;;;9.52;100.00;97022.31;4982589;28;20101;-66
2022/10/08 01:09:37;;;;;;;22.75;14.95;;;;;;;9.66;100.00;97019.16;4977395;28;20079;-66
2022/10/08 01:12:15;;;;;;;22.77;14.35;;;;;;;9.84;100.00;97019.59;4994909;28;20043;-66
2022/10/08 01:15:00;;;;;;;21.90;14.57;;;;;;;10.00;100.00;97019.59;4991435;28;20085;-66
2022/10/08 01:17:54;;;;;;;26.05;14.82;;;;;;;10.09;100.00;97017.47;4978236;28;20069;-66
2022/10/08 01:20:30;;;;;;;22.75;14.60;;;;;;;10.20;100.00;97015.75;4979517;28;20368;-66
2022/10/08 01:23:20;;;;;;;24.88;14.82;;;;;;;10.32;100.00;97018.41;4974598;28;20110;-66
2022/10/08 01:26:21;;;;;;;38.28;17.90;;;;;;;10.04;100.00;97009.53;4981356;28;20073;-66
2022/10/08 01:29:05;;;;;;;48.03;19.13;;;;;;;9.97;100.00;97009.34;4983428;28;20403;-65
2022/10/08 01:31:45;;;;;;;45.05;19.80;;;;;;;9.81;100.00;97007.41;4983300;28;20042;-65
2022/10/08 01:34:30;;;;;;;36.10;17.60;;;;;;;9.82;100.00;97003.53;4978354;28;20050;-66
2022/10/08 01:36:58;;;;;;;37.50;18.65;;;;;;;9.93;100.00;97001.84;4982020;28;20125;-66
2022/10/08 01:39:30;;;;;;;51.08;19.60;;;;;;;10.12;100.00;97014.03;4978927;28;20576;-66
2022/10/08 01:41:58;;;;;;;62.80;23.33;;;;;;;9.90;100.00;97001.75;4983205;28;20034;-66
2022/10/08 01:44:40;;;;;;;44.03;21.42;;;;;;;9.84;100.00;96998.50;4978057;28;20046;-66
2022/10/08 01:47:11;;;;;;;41.00;20.17;;;;;;;9.76;100.00;96997.56;4989825;28;20046;-66
2022/10/08 01:49:44;;;;;;;35.30;17.98;;;;;;;9.88;100.00;96982.97;4983277;28;20405;-66
2022/10/08 01:52:16;;;;;;;42.47;18.52;;;;;;;9.93;100.00;96985.44;4978497;28;20505;-66
2022/10/08 01:54:47;;;;;;;31.70;16.80;;;;;;;9.97;100.00;96995.69;4982807;28;20046;-66
2022/10/08 01:57:12;;;;;;;32.28;17.80;;;;;;;10.10;100.00;96988.94;4977913;28;20709;-66
2022/10/08 01:59:46;;;;;;;32.55;16.67;;;;;;;10.23;100.00;96990.41;4981852;28;20129;-65
2022/10/08 02:02:23;;;;;;;41.22;19.48;;;;;;;10.40;100.00;96994.72;4977641;28;20188;-65
2022/10/08 02:04:52;;;;;;;46.67;18.15;;;;;;;10.53;100.00;96992.63;4982180;28;20058;-65
2022/10/08 02:07:31;;;;;;;35.40;17.10;;;;;;;10.57;100.00;96993.53;4988482;28;20038;-65
2022/10/08 02:10:12;;;;;;;36.50;16.70;;;;;;;10.60;100.00;96992.78;4983677;28;20112;-67
2022/10/08 02:12:39;;;;;;;43.83;18.67;;;;;;;10.68;100.00;96993.75;4980349;28;20045;-66
2022/10/08 02:15:18;;;;;;;48.15;19.52;;;;;;;10.74;100.00;96988.78;4978066;28;20678;-67
2022/10/08 02:18:06;;;;;;;43.30;18.53;;;;;;;10.67;100.00;96987.47;4981193;28;20068;-67
2022/10/08 02:20:36;;;;;;;48.83;19.85;;;;;;;10.61;100.00;96979.91;4982028;28;20277;-67
2022/10/08 02:23:24;;;;;;;40.70;19.73;;;;;;;10.44;100.00;96987.41;4972667;28;20454;-66
2022/10/08 02:26:02;;;;;;;46.25;21.02;;;;;;;10.31;100.00;96986.69;4981473;28;20396;-66
2022/10/08 02:29:15;;;;;;;43.72;20.75;;;;;;;10.22;100.00;96986.09;4969134;28;20038;-66
2022/10/08 02:31:56;;;;;;;54.33;22.02;;;;;;;10.12;100.00;96984.69;4941766;29;20362;-66
2022/10/08 02:34:24;;;;;;;46.83;20.50;;;;;;;10.08;100.00;96983.03;4976960;28;20502;-66
2022/10/08 02:37:00;;;;;;;43.58;19.60;;;;;;;10.06;100.00;96977.91;4981807;28;20073;-66
2022/10/08 02:39:29;;;;;;;45.25;19.30;;;;;;;10.23;100.00;96982.22;4977599;28;20047;-66
2022/10/08 02:41:59;;;;;;;50.85;19.30;;;;;;;10.35;100.00;96986.78;4979886;28;20042;-66
2022/10/08 02:44:27;;;;;;;40.70;19.35;;;;;;;10.44;100.00;96992.06;4977743;28;20061;-67
2022/10/08 02:46:56;;;;;;;45.28;19.05;;;;;;;10.45;100.00;96986.22;4982272;28;20038;-66
2022/10/08 02:49:30;;;;;;;48.38;19.75;;;;;;;10.51;100.00;96992.22;4975853;28;20757;-66
2022/10/08 02:52:00;;;;;;;34.95;17.30;;;;;;;10.57;100.00;96987.25;4984449;28;20719;-67
2022/10/08 02:54:28;;;;;;;47.75;19.25;;;;;;;10.57;100.00;96992.72;4959493;28;20121;-68
2022/10/08 02:57:29;;;;;;;44.22;17.90;;;;;;;10.60;100.00;96995.53;4973847;28;20133;-66
2022/10/08 02:59:55;;;;;;;41.97;17.83;;;;;;;10.64;100.00;96988.19;4979551;28;20042;-66
2022/10/08 03:02:38;;;;;;;48.45;19.92;;;;;;;10.53;100.00;96989.91;4977229;28;20686;-66
2022/10/08 03:05:10;;;;;;;34.25;18.63;;;;;;;10.48;100.00;96993.72;4978561;28;20042;-67
2022/10/08 03:07:36;;;;;;;51.33;19.23;;;;;;;10.47;100.00;96991.34;4981570;28;20133;-67
2022/10/08 03:10:05;;;;;;;43.58;21.90;;;;;;;10.41;100.00;96993.56;4984636;28;20136;-67
2022/10/08 03:12:32;;;;;;;43.00;23.52;;;;;;;10.35;100.00;96991.47;4993083;28;20626;-66
2022/10/08 03:14:58;;;;;;;49.22;22.65;;;;;;;10.23;100.00;96995.88;4982216;28;20137;-66
2022/10/08 03:17:30;;;;;;;40.95;20.17;;;;;;;10.24;100.00;96992.00;4976082;28;20407;-66
2022/10/08 03:19:56;;;;;;;41.25;21.02;;;;;;;10.40;100.00;97002.94;4981182;28;20073;-66
2022/10/08 03:22:23;;;;;;;40.50;20.67;;;;;;;10.36;100.00;96999.34;4971636;28;20054;-66
2022/10/08 03:24:49;;;;;;;44.67;21.00;;;;;;;10.29;100.00;97002.66;4978553;28;20066;-66
2022/10/08 03:27:14;;;;;;;47.03;20.00;;;;;;;10.29;100.00;96999.13;4975934;28;20455;-66
2022/10/08 03:29:40;;;;;;;45.65;18.75;;;;;;;10.34;100.00;96998.91;4984811;28;20072;-66
2022/10/08 03:32:05;;;;;;;41.80;19.10;;;;;;;10.47;100.00;96997.59;4980701;28;20119;-65
2022/10/08 03:34:31;;;;;;;36.38;18.60;;;;;;;10.60;100.00;97002.97;4994558;28;20042;-66
2022/10/08 03:36:56;;;;;;;44.47;17.23;;;;;;;10.53;100.00;97011.81;4992480;28;20791;-65
2022/10/08 03:39:21;;;;;;;32.08;18.27;;;;;;;10.58;100.00;97005.28;4987599;28;20050;-66
2022/10/08 03:41:47;;;;;;;34.00;17.33;;;;;;;10.65;100.00;97016.38;4986108;28;20430;-66
2022/10/08 03:44:12;;;;;;;41.28;19.33;;;;;;;10.69;100.00;97009.81;4980204;28;20042;-64
2022/10/08 03:46:38;;;;;;;35.53;17.88;;;;;;;10.74;100.00;97016.16;4984693;28;20144;-65
2022/10/08 03:49:03;;;;;;;37.50;18.42;;;;;;;10.76;100.00;97011.13;4981198;28;20068;-64
2022/10/08 03:51:29;;;;;;;36.42;19.65;;;;;;;10.74;100.00;97010.69;4988763;28;20046;-65
2022/10/08 03:53:54;;;;;;;40.60;20.02;;;;;;;10.76;100.00;97011.91;4990085;28;20050;-66
2022/10/08 03:56:24;;;;;;;39.38;19.38;;;;;;;10.75;100.00;97015.00;4984556;28;20391;-66
2022/10/08 03:58:54;;;;;;;;;;;;;;;10.67;100.00;97014.06;4985908;28;20057;-66
2022/10/08 04:01:19;;;;;;;43.50;19.35;;;;;;;10.59;100.00;97015.88;4976732;28;20390;-66
2022/10/08 04:03:44;;;;;;;38.70;20.10;;;;;;;10.59;100.00;97018.59;4985247;28;20038;-66
2022/10/08 04:06:11;;;;;;;35.85;20.63;;;;;;;10.58;100.00;97016.22;4979579;28;20046;-67
2022/10/08 04:08:37;;;;;;;45.78;22.40;;;;;;;10.41;100.00;97009.22;4985284;28;20046;-66
2022/10/08 04:11:14;;;;;;;48.47;21.92;;;;;;;10.23;100.00;97011.53;4982943;28;20372;-66
2022/10/08 04:13:40;;;;;;;42.75;21.17;;;;;;;10.18;100.00;97017.28;4986583;28;20118;-65
2022/10/08 04:16:12;;;;;;;39.17;19.73;;;;;;;10.27;100.00;97012.41;4979189;28;20054;-67
2022/10/08 04:18:39;;;;;;;46.00;21.83;;;;;;;10.31;100.00;97013.28;4985329;28;20058;-67
2022/10/08 04:21:07;;;;;;;46.60;21.38;;;;;;;10.42;100.00;97014.31;4979373;28;20498;-67
2022/10/08 04:23:35;;;;;;;39.70;20.17;;;;;;;10.58;100.00;97013.50;4984415;28;20046;-67
2022/10/08 04:26:01;;;;;;;33.35;17.85;;;;;;;10.57;100.00;97012.69;4992404;28;20050;-67
2022/10/08 04:28:27;;;;;;;38.13;19.83;;;;;;;10.62;100.00;97011.59;4969243;28;20038;-66
2022/10/08 04:31:09;;;;;;;37.90;20.27;;;;;;;10.74;100.00;97013.44;4964946;28;20053;-65
2022/10/08 04:33:36;;;;;;;42.15;20.67;;;;;;;10.81;100.00;97006.16;4975645;28;20034;-66
2022/10/08 04:36:10;;;;;;;38.05;18.75;;;;;;;10.82;100.00;97012.41;4995552;28;20042;-66
2022/10/08 04:38:36;;;;;;;38.28;18.77;;;;;;;10.80;100.00;97010.03;4977465;28;20038;-66
2022/10/08 04:41:01;;;;;;;39.65;20.85;;;;;;;10.84;100.00;97002.69;4983679;28;20049;-66
2022/10/08 04:43:27;;;;;;;38.25;19.08;;;;;;;10.81;100.00;97005.34;4977925;28;20046;-65
2022/10/08 04:45:52;;;;;;;44.22;23.25;;;;;;;10.70;100.00;97005.91;4983871;28;20543;-65
2022/10/08 04:48:18;;;;;;;42.35;20.60;;;;;;;10.64;100.00;97003.81;4978964;28;20407;-66
2022/10/08 04:50:43;;;;;;;30.27;18.95;;;;;;;10.75;100.00;97012.25;4997391;28;20081;-66
2022/10/08 04:53:09;;;;;;;41.42;19.55;;;;;;;10.79;100.00;97008.44;4989966;28;20073;-66
2022/10/08 04:55:34;;;;;;;39.42;19.73;;;;;;;10.70;100.00;97008.66;4983877;28;20042;-66
2022/10/08 04:57:59;;;;;;;38.17;19.02;;;;;;;10.65;100.00;97003.47;4981873;28;20630;-66
2022/10/08 05:00:25;;;;;;;33.28;18.30;;;;;;;10.60;100.00;97006.47;4978108;28;20047;-67
2022/10/08 05:02:50;;;;;;;32.95;18.73;;;;;;;10.61;100.00;97005.34;4984400;28;20042;-66
2022/10/08 05:05:16;;;;;;;35.28;18.73;;;;;;;10.64;100.00;97003.81;4979017;28;20038;-66
2022/10/08 05:07:41;;;;;;;36.33;18.75;;;;;;;10.64;100.00;96996.41;4980744;28;20808;-66
2022/10/08 05:10:07;;;;;;;36.47;17.80;;;;;;;10.63;100.00;97000.28;4979469;28;20046;-66
2022/10/08 05:12:33;;;;;;;39.78;21.38;;;;;;;10.62;100.00;96998.69;4983409;28;20384;-66
2022/10/08 05:14:58;;;;;;;41.78;21.25;;;;;;;10.54;100.00;97002.47;4979377;28;20491;-66
2022/10/08 05:17:23;;;;;;;37.88;19.65;;;;;;;10.54;100.00;97005.19;4977876;28;20714;-66
2022/10/08 05:19:49;;;;;;;39.85;21.00;;;;;;;10.57;100.00;96999.00;4983416;28;20126;-67
2022/10/08 05:22:14;;;;;;;35.53;20.92;;;;;;;10.54;100.00;97001.66;4973953;28;20038;-67
2022/10/08 05:24:40;;;;;;;34.30;18.63;;;;;;;10.61;100.00;96996.34;4979106;28;20148;-67
2022/10/08 05:27:05;;;;;;;39.95;18.27;;;;;;;10.68;100.00;97001.97;4978263;28;20399;-66
2022/10/08 05:29:30;;;;;;;33.25;18.55;;;;;;;10.73;100.00;97004.41;4983816;28;20511;-66
2022/10/08 05:31:56;;;;;;;37.38;18.27;;;;;;;10.78;100.00;97008.81;4984153;28;20034;-67
2022/10/08 05:34:22;;;;;;;44.58;19.58;;;;;;;10.80;100.00;97006.50;4980264;28;21330;-66
2022/10/08 05:36:47;;;;;;;41.38;19.35;;;;;;;10.84;100.00;97007.34;4983150;28;20038;-67
2022/10/08 05:39:13;;;;;;;36.35;19.23;;;;;;;10.86;100.00;97007.81;4979527;28;20368;-65
2022/10/08 05:41:40;;;;;;;37.63;18.52;;;;;;;10.84;100.00;97015.56;4984610;28;20046;-66
2022/10/08 05:44:07;;;;;;;40.08;18.80;;;;;;;10.87;100.00;97012.91;4978915;28;20050;-67
2022/10/08 05:46:34;;;;;;;39.97;20.35;;;;;;;10.87;100.00;97017.59;4981905;28;20077;-66
2022/10/08 05:49:02;;;;;;;39.72;21.05;;;;;;;10.86;100.00;97008.59;4982978;28;20612;-65
2022/10/08 05:51:28;;;;;;;48.40;21.60;;;;;;;10.82;100.00;97018.69;4970565;28;20050;-66
2022/10/08 05:53:55;;;;;;;46.65;22.33;;;;;;;10.79;100.00;97019.41;4982043;28;20535;-66
2022/10/08 05:56:23;;;;;;;45.22;23.40;;;;;;;10.77;100.00;97018.97;4977960;28;20117;-65
2022/10/08 05:58:49;;;;;;;37.70;21.60;;;;;;;10.80;100.00;97020.97;4983201;28;20085;-65
2022/10/08 06:01:24;;;;;;;37.58;18.83;;;;;;;10.87;100.00;97025.81;4976911;28;20046;-65
2022/10/08 06:03:51;;;;;;;46.08;22.00;;;;;;;10.93;100.00;97029.88;4986506;28;20153;-65
2022/10/08 06:06:17;;;;;;;46.15;21.63;;;;;;;10.98;100.00;97024.09;4971497;28;20480;-65
2022/10/08 06:08:43;;;;;;;48.65;21.05;;;;;;;11.16;100.00;97031.88;4963504;28;20395;-67
2022/10/08 06:11:09;;;;;;;42.85;20.55;;;;;;;11.33;100.00;97036.91;4959772;28;20105;-66
2022/10/08 06:13:34;;;;;;;40.08;19.75;;;;;;;11.42;100.00;97040.22;4963761;28;20074;-66
2022/10/08 06:16:06;;;;;;;40.22;18.48;;;;;;;11.47;100.00;97041.88;4962650;28;20570;-66
2022/10/08 06:18:40;;;;;;;33.03;18.50;;;;;;;11.46;100.00;97043.03;4974896;28;20419;-66
2022/10/08 06:21:12;;;;;;;42.22;20.70;;;;;;;11.45;100.00;97052.38;4975100;28;20038;-66
2022/10/08 06:23:43;;;;;;;39.28;21.10;;;;;;;11.49;100.00;97058.75;4980415;28;20391;-66
2022/10/08 06:26:09;;;;;;;46.55;21.98;;;;;;;11.56;100.00;97058.88;4958051;28;20113;-66
2022/10/08 06:28:36;;;;;;;45.47;21.73;;;;;;;11.63;100.00;97059.03;4961207;28;20038;-66
2022/10/08 06:31:03;;;;;;;53.72;22.98;;;;;;;11.44;100.00;97054.34;4962790;28;20081;-66
2022/10/08 06:33:29;;;;;;;48.88;22.08;;;;;;;11.34;100.00;97063.16;4961230;28;20043;-66
2022/10/08 06:35:54;;;;;;;47.90;22.88;;;;;;;11.23;100.00;97059.44;4962324;28;20035;-66
2022/10/08 06:38:21;;;;;;;55.72;24.73;;;;;;;11.16;100.00;97070.25;4957120;28;20579;-64
2022/10/08 06:40:47;;;;;;;61.33;27.15;;;;;;;11.14;100.00;97059.66;4962418;28;20105;-65
2022/10/08 06:43:17;;;;;;;58.35;25.30;;;;;;;11.16;100.00;97067.50;4958363;28;20046;-66
2022/10/08 06:45:44;;;;;;;59.97;27.63;;;;;;;11.18;100.00;97065.19;4961171;28;20184;-65
2022/10/08 06:48:13;;;;;;;57.35;28.75;;;;;;;11.11;100.00;97074.09;4958034;28;20506;-66
2022/10/08 06:50:39;;;;;;;50.97;26.23;;;;;;;11.12;100.00;97063.91;4962260;28;20047;-65
2022/10/08 06:53:07;;;;;;;60.17;27.17;;;;;;;11.21;100.00;97065.28;4957838;28;20045;-65
2022/10/08 06:55:34;;;;;;;56.80;28.83;;;;;;;11.16;100.00;97064.78;4961591;28;20042;-66
2022/10/08 06:58:00;;;;;;;55.15;28.60;;;;;;;11.16;100.00;97073.78;4962785;28;20445;-66
2022/10/08 07:00:26;;;;;;;56.17;28.77;;;;;;;11.17;100.00;97071.84;4957932;28;20506;-66
2022/10/08 07:02:51;;;;;;;51.65;26.85;;;;;;;11.31;100.00;97072.13;4962743;28;20046;-66
2022/10/08 07:05:17;;;;;;;54.67;26.25;;;;;;;11.56;100.00;97078.09;4968431;28;20169;-65
2022/10/08 07:07:43;;;;;;;53.25;26.80;;;;;;;11.62;100.00;97081.31;4981178;28;20038;-65
2022/10/08 07:10:08;;;;;;;52.10;26.42;;;;;;;11.79;100.00;97085.53;4977473;28;20149;-66
2022/10/08 07:12:34;;;;;;;48.72;25.88;;;;;;;11.97;100.00;97083.13;4981835;28;20414;-65
2022/10/08 07:14:59;;;;;;;50.97;24.17;;;;;;;12.05;100.00;97088.38;4982079;28;20467;-66
2022/10/08 07:17:27;;;;;;;37.28;21.40;;;;;;;12.18;100.00;97083.50;4976405;28;20049;-67
2022/10/08 07:19:54;;;;;;;39.67;22.25;;;;;;;12.32;100.00;97082.94;4973731;28;20471;-66
2022/10/08 07:22:19;;;;;;;45.83;21.67;;;;;;;12.47;100.00;97089.44;4973314;28;20143;-66
2022/10/08 07:24:45;;;;;;;46.35;22.15;;;;;;;12.55;100.00;97084.81;4981892;28;20506;-66
2022/10/08 07:27:11;;;;;;;41.72;24.80;;;;;;;12.54;100.00;97080.50;4975484;28;20061;-67
2022/10/08 07:29:36;;;;;;;39.92;23.58;;;;;;;12.56;100.00;97089.94;4981045;28;20082;-66
2022/10/08 07:32:01;;;;;;;49.08;30.13;;;;;;;12.47;100.00;97094.91;4982834;28;20051;-65
2022/10/08 07:34:27;;;;;;;49.40;27.77;;;;;;;12.42;100.00;97095.22;4976058;28;20043;-66
2022/10/08 07:36:52;;;;;;;43.97;27.35;;;;;;;12.44;100.00;97098.41;4979327;28;20151;-67
2022/10/08 07:39:18;;;;;;;38.88;23.65;;;;;;;12.43;100.00;97094.09;4976259;28;20054;-66
2022/10/08 07:41:44;;;;;;;35.45;22.17;;;;;;;12.37;100.00;97096.34;4980827;28;20042;-66
2022/10/08 07:44:10;;;;;;;38.63;24.08;;;;;;;12.41;100.00;97096.41;4976838;28;20049;-66
2022/10/08 07:46:40;;;;;;;44.92;24.73;;;;;;;12.41;100.00;97099.16;4981327;28;20502;-66
2022/10/08 07:49:05;;;;;;;47.17;25.05;;;;;;;12.33;100.00;97100.19;4976188;28;20046;-66
2022/10/08 07:51:33;;;;;;;55.80;32.28;;;;;;;12.34;100.00;97099.03;4992027;28;20074;-66
2022/10/08 07:54:00;;;;;;;47.90;28.58;;;;;;;12.33;100.00;97094.69;4995453;28;20034;-66
2022/10/08 07:56:26;;;;;;;48.40;25.35;;;;;;;12.45;100.00;97094.50;4989596;28;20102;-66
2022/10/08 07:58:51;;;;;;;43.50;23.48;;;;;;;12.54;100.00;97100.53;4982067;28;20145;-65
2022/10/08 08:01:20;;;;;;;37.88;22.13;;;;;;;12.66;100.00;97098.72;4987600;28;20046;-66
2022/10/08 08:03:52;;;;;;;41.17;21.38;;;;;;;12.64;100.00;97099.13;4993259;28;20125;-65
2022/10/08 08:06:17;;;;;;;69.18;38.03;;;;;;;12.59;100.00;97099.44;4975790;28;20101;-66
2022/10/08 08:08:44;;;;;;;76.38;36.83;;;;;;;12.39;100.00;97094.03;4981736;28;20507;-67
2022/10/08 08:11:12;;;;;;;61.97;36.45;;;;;;;12.46;100.00;97098.84;4976022;28;20044;-66
2022/10/08 08:13:39;;;;;;;42.17;26.38;;;;;;;12.54;100.00;97108.78;4996307;28;20050;-66
2022/10/08 08:16:14;;;;;;;37.03;23.92;;;;;;;12.57;100.00;97101.75;4979794;28;20046;-67
2022/10/08 08:18:42;;;;;;;38.53;23.15;;;;;;;12.56;100.00;97100.16;4986419;28;20132;-65
2022/10/08 08:21:14;;;;;;;38.00;24.20;;;;;;;12.56;100.00;97100.94;4972782;28;20042;-65
2022/10/08 08:23:42;;;;;;;44.53;26.70;;;;;;;12.58;100.00;97100.56;4992077;28;20133;-65
2022/10/08 08:26:13;;;;;;;85.93;51.40;;;;;;;12.63;100.00;97101.06;4980478;28;20046;-65
2022/10/08 08:28:39;;;;;;;34.00;22.77;;;;;;;12.64;100.00;97104.63;4993062;28;20053;-66
2022/10/08 08:31:18;;;;;;;30.38;20.83;;;;;;;12.74;100.00;97097.66;4989500;28;20105;-63
2022/10/08 08:33:51;;;;;;;35.17;25.75;;;;;;;13.03;100.00;97100.81;4990748;28;20529;-65
2022/10/08 08:36:18;;;;;;;37.67;20.02;;;;;;;13.00;100.00;97092.16;4979424;28;20042;-66
2022/10/08 08:38:43;;;;;;;29.00;17.73;;;;;;;12.97;100.00;97097.59;4982558;28;20053;-65
2022/10/08 08:41:19;;;;;;;27.77;18.88;;;;;;;13.13;100.00;97098.19;4980948;28;20046;-65
2022/10/08 08:43:45;;;;;;;25.75;17.58;;;;;;;13.28;100.00;97112.91;4988849;28;20565;-65
2022/10/08 08:46:16;;;;;;;23.42;15.65;;;;;;;13.61;100.00;97099.56;4979975;28;20038;-65
2022/10/08 08:48:44;;;;;;;39.95;25.63;;;;;;;13.37;100.00;97099.69;4985495;28;20066;-65
2022/10/08 08:51:10;;;;;;;22.83;15.10;;;;;;;13.50;100.00;97093.94;4978610;28;20399;-65
2022/10/08 08:53:36;;;;;;;25.70;13.88;;;;;;;13.95;100.00;97100.28;4983922;28;20085;-65
2022/10/08 08:56:05;;;;;;;18.08;13.35;;;;;;;14.30;100.00;97108.09;4981740;28;20053;-66
2022/10/08 08:58:39;;;;;;;25.83;13.18;;;;;;;14.42;100.00;97107.00;4983647;28;20065;-66
2022/10/08 09:01:07;;;;;;;18.33;12.68;;;;;;;14.57;100.00;97107.91;4978927;28;20399;-65
2022/10/08 09:03:34;;;;;;;26.05;14.00;;;;;;;14.34;100.00;97114.41;4983797;28;20047;-64
2022/10/08 09:06:08;;;;;;;21.25;13.73;;;;;;;14.41;100.00;97104.63;4985289;28;20038;-65
2022/10/08 09:08:39;;;;;;;18.75;12.63;;;;;;;14.65;100.00;97106.00;4981542;28;20042;-65
2022/10/08 09:11:05;;;;;;;17.85;11.90;;;;;;;14.94;100.00;97106.97;4979128;28;20050;-65
2022/10/08 09:13:44;;;;;;;18.08;12.25;;;;;;;15.04;100.00;97103.50;4984557;28;20054;-64
2022/10/08 09:16:12;;;;;;;17.58;12.00;;;;;;;15.16;100.00;97113.41;4978596;28;20042;-64
2022/10/08 09:18:37;;;;;;;13.80;10.95;;;;;;;15.34;100.00;97107.16;4984990;28;20054;-66
2022/10/08 09:21:04;;;;;;;17.25;12.02;;;;;;;14.43;100.00;97108.59;4983485;28;20046;-65
2022/10/08 09:23:29;;;;;;;17.38;12.75;;;;;;;14.41;100.00;97110.16;4985178;28;20124;-66
2022/10/08 09:26:15;;;;;;;20.60;12.77;;;;;;;14.88;100.00;97116.81;4983400;28;20361;-65
2022/10/08 09:28:43;;;;;;;18.98;12.73;;;;;;;15.12;100.00;97126.38;4965776;28;20050;-65
2022/10/08 09:31:31;;;;;;;21.00;13.00;;;;;;;14.84;100.00;97122.28;4973152;28;20372;-65
2022/10/08 09:34:15;;;;;;;20.15;12.18;;;;;;;15.15;100.00;97128.38;4984355;28;20130;-64
2022/10/08 09:36:42;;;;;;;22.08;12.45;;;;;;;15.63;100.00;97130.16;4983410;28;20042;-64
2022/10/08 09:39:23;;;;;;;23.45;12.20;;;;;;;15.70;100.00;97140.41;4978936;28;20416;-64
2022/10/08 09:42:06;;;;;;;18.17;11.60;;;;;;;15.43;100.00;97135.19;4982402;28;20045;-65
2022/10/08 09:44:44;;;;;;;20.27;14.35;;;;;;;15.36;100.00;97135.16;4983977;28;20064;-64
2022/10/08 09:47:17;;;;;;;19.58;11.70;;;;;;;15.73;100.00;97137.66;4978186;28;20093;-65
2022/10/08 09:49:48;;;;;;;20.90;13.05;;;;;;;15.50;100.00;97140.75;4981036;28;20046;-66
2022/10/08 09:52:25;;;;;;;21.80;12.18;;;;;;;15.73;100.00;97142.41;4979125;28;20039;-68
2022/10/08 09:54:59;;;;;;;17.42;11.02;;;;;;;16.03;100.00;97144.91;4983458;28;20045;-69
2022/10/08 09:57:27;;;;;;;18.48;13.23;;;;;;;16.33;100.00;97149.25;4976068;28;20042;-67
2022/10/08 10:00:04;;;;;;;14.38;10.90;;;;;;;16.16;100.00;97148.06;4983010;28;20201;-67
2022/10/08 10:02:35;;;;;;;16.15;11.95;;;;;;;15.78;100.00;97139.31;4982265;28;20050;-66
2022/10/08 10:05:06;;;;;;;18.38;11.88;;;;;;;16.05;100.00;97143.31;4983726;28;20046;-67
2022/10/08 10:07:51;;;;;;;17.90;12.77;;;;;;;15.88;100.00;97137.75;4981484;28;20396;-67
2022/10/08 10:10:34;;;;;;;19.85;12.38;;;;;;;16.24;100.00;97135.81;4976336;28;20054;-69
2022/10/08 10:13:32;;;;;;;21.23;12.30;;;;;;;16.64;100.00;97128.34;4983098;28;20065;-70
2022/10/08 10:16:01;;;;;;;17.25;11.85;;;;;;;16.83;100.00;97132.69;4959498;28;20034;-70
2022/10/08 10:18:38;;;;;;;14.32;11.82;;;;;;;16.59;100.00;97128.75;4971322;28;20054;-69
2022/10/08 10:21:14;;;;;;;19.17;11.48;;;;;;;16.99;100.00;97135.03;4959749;28;20039;-67
2022/10/08 10:23:49;;;;;;;16.27;11.32;;;;;;;17.29;100.00;97128.25;4963191;28;20054;-71
2022/10/08 10:26:20;;;;;;;17.15;11.65;;;;;;;17.47;100.00;97126.19;4952344;28;20047;-68
2022/10/08 10:29:07;;;;;;;16.38;11.18;;;;;;;17.70;100.00;97135.97;4964594;28;20086;-69
2022/10/08 10:31:39;;;;;;;21.00;12.48;;;;;;;17.67;100.00;97122.94;4963645;28;20166;-70
2022/10/08 10:34:34;;;;;;;16.15;12.05;;;;;;;17.29;100.00;97122.72;4962709;28;20050;-67
2022/10/08 10:37:14;;;;;;;21.70;12.45;;;;;;;17.63;100.00;97130.47;4951171;28;20190;-70
2022/10/08 10:39:47;;;;;;;16.65;11.82;;;;;;;17.87;100.00;97126.81;4961793;28;20205;-70
2022/10/08 10:42:28;;;;;;;21.50;12.57;;;;;;;18.21;100.00;97126.22;4958100;28;20349;-70
2022/10/08 10:45:14;;;;;;;20.50;12.30;;;;;;;18.53;100.00;97120.41;4944146;28;20465;-70
2022/10/08 10:47:40;;;;;;;21.75;12.77;;;;;;;18.49;100.00;97124.41;4957620;28;20624;-68
2022/10/08 10:50:12;;;;;;;15.80;11.68;;;;;;;18.47;100.00;97127.59;4938763;28;20047;-68
2022/10/08 10:53:20;;;;;;;19.27;11.73;;;;;;;18.78;100.00;97122.19;4942695;28;20043;-69
2022/10/08 10:56:02;;;;;;;18.40;11.25;;;;;;;18.22;100.00;97122.25;4942047;28;20047;-69
2022/10/08 10:58:30;;;;;;;17.52;11.50;;;;;;;18.65;100.00;97123.88;4939604;28;20081;-68
2022/10/08 11:01:20;;;;;;;20.58;11.70;;;;;;;18.70;100.00;97129.00;4942600;28;20058;-69
2022/10/08 11:03:52;;;;;;;21.45;11.93;;;;;;;18.36;100.00;97134.41;4959824;28;20146;-67
2022/10/08 11:06:20;;;;;;;17.75;12.70;;;;;;;17.72;100.00;97126.06;4944672;28;20477;-68
2022/10/08 11:09:08;;;;;;;18.58;12.05;;;;;;;18.40;100.00;97126.84;4948826;28;20046;-68
2022/10/08 11:12:15;;;;;;;23.17;12.40;;;;;;;18.68;100.00;97123.84;4963413;28;20059;-68
2022/10/08 11:15:07;;;;;;;16.15;12.15;;;;;;;18.85;100.00;97124.94;4962979;28;20043;-71
2022/10/08 11:17:51;;;;;;;18.35;12.63;;;;;;;18.90;100.00;97123.69;4960879;28;20053;-68
2022/10/08 11:20:38;;;;;;;18.17;13.52;;;;;;;18.83;100.00;97123.75;4956146;28;20043;-69
2022/10/08 11:23:10;;;;;;;22.38;13.30;;;;;;;18.62;100.00;97116.38;4957703;28;20042;-68
2022/10/08 11:25:53;;;;;;;21.67;13.60;;;;;;;18.51;100.00;97113.69;4967241;28;20132;-69
2022/10/08 11:28:37;;;;;;;20.95;13.98;;;;;;;18.23;100.00;97118.28;4970871;28;20042;-69
2022/10/08 11:31:14;;;;;;;20.75;14.18;;;;;;;18.34;100.00;97112.66;4979843;28;20053;-69